sensor_id;sensor_type;location;lat;lon;timestamp;pressure;altitude;pressure_sealevel;temperature;humidity
77047;BME280;65977;56.380;44.022;2023-03-01T00:01:14;99177.47;;;-1.34;56.23
77047;BME280;65977;56.380;44.022;2023-03-01T00:03:41;99171.28;;;-1.32;56.10
77047;BME280;65977;56.380;44.022;2023-03-01T00:06:06;99171.84;;;-1.27;56.52
77047;BME280;65977;56.380;44.022;2023-03-01T00:08:33;99172.59;;;-1.24;56.13
77047;BME280;65977;56.380;44.022;2023-03-01T00:11:15;99168.97;;;-1.22;55.92
77047;BME280;65977;56.380;44.022;2023-03-01T00:13:42;99167.41;;;-1.24;56.11
77047;BME280;65977;56.380;44.022;2023-03-01T00:16:14;99169.81;;;-1.21;55.91
77047;BME280;65977;56.380;44.022;2023-03-01T00:18:40;99168.16;;;-1.22;55.68
77047;BME280;65977;56.380;44.022;2023-03-01T00:21:06;99167.31;;;-1.23;55.58
77047;BME280;65977;56.380;44.022;2023-03-01T00:23:34;99165.03;;;-1.27;55.19
77047;BME280;65977;56.380;44.022;2023-03-01T00:26:00;99167.59;;;-1.27;55.14
77047;BME280;65977;56.380;44.022;2023-03-01T00:28:26;99172.03;;;-1.30;54.68
77047;BME280;65977;56.380;44.022;2023-03-01T00:30:51;99160.47;;;-1.38;55.11
77047;BME280;65977;56.380;44.022;2023-03-01T00:33:18;99153.03;;;-1.44;55.01
77047;BME280;65977;56.380;44.022;2023-03-01T00:35:44;99168.31;;;-1.40;55.10
77047;BME280;65977;56.380;44.022;2023-03-01T00:38:10;99172.94;;;-1.45;54.58
77047;BME280;65977;56.380;44.022;2023-03-01T00:40:36;99172.94;;;-1.45;55.06
77047;BME280;65977;56.380;44.022;2023-03-01T00:43:03;99165.25;;;-1.46;54.98
77047;BME280;65977;56.380;44.022;2023-03-01T00:45:29;99173.78;;;-1.44;54.19
77047;BME280;65977;56.380;44.022;2023-03-01T00:47:56;99171.28;;;-1.46;54.36
77047;BME280;65977;56.380;44.022;2023-03-01T00:50:23;99167.97;;;-1.48;54.06
77047;BME280;65977;56.380;44.022;2023-03-01T00:52:53;99174.59;;;-1.44;53.89
77047;BME280;65977;56.380;44.022;2023-03-01T00:55:19;99153.59;;;-1.53;53.87
77047;BME280;65977;56.380;44.022;2023-03-01T00:57:44;99163.59;;;-1.47;53.78
77047;BME280;65977;56.380;44.022;2023-03-01T01:00:10;99166.09;;;-1.46;53.84
77047;BME280;65977;56.380;44.022;2023-03-01T01:02:36;99167.69;;;-1.43;53.36
77047;BME280;65977;56.380;44.022;2023-03-01T01:05:02;99160.66;;;-1.41;53.70
77047;BME280;65977;56.380;44.022;2023-03-01T01:07:28;99151.66;;;-1.50;53.41
77047;BME280;65977;56.380;44.022;2023-03-01T01:09:54;99154.72;;;-1.43;53.38
77047;BME280;65977;56.380;44.022;2023-03-01T01:12:20;99163.06;;;-1.38;53.04
77047;BME280;65977;56.380;44.022;2023-03-01T01:14:45;99161.47;;;-1.41;53.36
77047;BME280;65977;56.380;44.022;2023-03-01T01:17:11;99167.41;;;-1.39;53.16
77047;BME280;65977;56.380;44.022;2023-03-01T01:19:37;99161.31;;;-1.38;52.80
77047;BME280;65977;56.380;44.022;2023-03-01T01:22:03;99158.72;;;-1.38;52.42
77047;BME280;65977;56.380;44.022;2023-03-01T01:24:29;99161.38;;;-1.39;52.35
77047;BME280;65977;56.380;44.022;2023-03-01T01:26:55;99166.28;;;-1.35;52.40
77047;BME280;65977;56.380;44.022;2023-03-01T01:29:21;99168.88;;;-1.35;52.28
77047;BME280;65977;56.380;44.022;2023-03-01T01:31:46;99165.47;;;-1.35;52.16
77047;BME280;65977;56.380;44.022;2023-03-01T01:34:16;99158.50;;;-1.35;52.03
77047;BME280;65977;56.380;44.022;2023-03-01T01:36:42;99156.19;;;-1.39;51.96
77047;BME280;65977;56.380;44.022;2023-03-01T01:39:08;99159.63;;;-1.39;52.08
77047;BME280;65977;56.380;44.022;2023-03-01T01:41:39;99167.50;;;-1.40;51.86
77047;BME280;65977;56.380;44.022;2023-03-01T01:44:25;99162.66;;;-1.46;51.90
77047;BME280;65977;56.380;44.022;2023-03-01T01:47:02;99156.19;;;-1.53;51.99
77047;BME280;65977;56.380;44.022;2023-03-01T01:49:31;99164.41;;;-1.47;51.70
77047;BME280;65977;56.380;44.022;2023-03-01T01:52:07;99162.78;;;-1.48;52.05
77047;BME280;65977;56.380;44.022;2023-03-01T01:54:45;99174.78;;;-1.47;52.27
77047;BME280;65977;56.380;44.022;2023-03-01T01:57:19;99175.53;;;-1.45;52.03
77047;BME280;65977;56.380;44.022;2023-03-01T01:59:52;99172.28;;;-1.48;51.72
77047;BME280;65977;56.380;44.022;2023-03-01T02:02:20;99176.53;;;-1.47;51.95
77047;BME280;65977;56.380;44.022;2023-03-01T02:04:47;99172.38;;;-1.50;52.07
77047;BME280;65977;56.380;44.022;2023-03-01T02:07:18;99173.13;;;-1.48;52.03
77047;BME280;65977;56.380;44.022;2023-03-01T02:09:49;99166.44;;;-1.52;52.23
77047;BME280;65977;56.380;44.022;2023-03-01T02:12:17;99165.59;;;-1.52;52.36
77047;BME280;65977;56.380;44.022;2023-03-01T02:14:43;99168.31;;;-1.54;51.91
77047;BME280;65977;56.380;44.022;2023-03-01T02:17:11;99170.91;;;-1.54;52.04
77047;BME280;65977;56.380;44.022;2023-03-01T02:22:24;99170.59;;;-1.63;52.58
77047;BME280;65977;56.380;44.022;2023-03-01T02:25:01;99166.59;;;-1.69;51.61
77047;BME280;65977;56.380;44.022;2023-03-01T02:30:48;99183.06;;;-1.70;52.66
77047;BME280;65977;56.380;44.022;2023-03-01T02:33:35;99182.66;;;-1.78;52.33
77047;BME280;65977;56.380;44.022;2023-03-01T02:36:08;99185.19;;;-1.76;51.84
77047;BME280;65977;56.380;44.022;2023-03-01T02:38:35;99182.66;;;-1.78;51.79
77047;BME280;65977;56.380;44.022;2023-03-01T02:41:02;99182.84;;;-1.81;52.43
77047;BME280;65977;56.380;44.022;2023-03-01T02:43:31;99187.38;;;-1.84;51.92
77047;BME280;65977;56.380;44.022;2023-03-01T02:46:03;99192.13;;;-1.93;52.00
77047;BME280;65977;56.380;44.022;2023-03-01T02:48:47;99191.72;;;-2.01;51.68
77047;BME280;65977;56.380;44.022;2023-03-01T02:51:18;99191.41;;;-2.10;52.13
77047;BME280;65977;56.380;44.022;2023-03-01T02:56:31;99194.44;;;-2.33;52.59
77047;BME280;65977;56.380;44.022;2023-03-01T02:58:57;99188.84;;;-2.41;52.62
77047;BME280;65977;56.380;44.022;2023-03-01T03:01:27;99206.31;;;-2.45;52.43
77047;BME280;65977;56.380;44.022;2023-03-01T03:04:07;99197.38;;;-2.55;52.86
77047;BME280;65977;56.380;44.022;2023-03-01T03:06:33;99198.78;;;-2.65;52.53
77047;BME280;65977;56.380;44.022;2023-03-01T03:08:59;99196.28;;;-2.67;52.57
77047;BME280;65977;56.380;44.022;2023-03-01T03:11:25;99197.47;;;-2.72;53.33
77047;BME280;65977;56.380;44.022;2023-03-01T03:13:51;99202.84;;;-2.77;53.42
77047;BME280;65977;56.380;44.022;2023-03-01T03:16:18;99204.94;;;-2.83;53.54
77047;BME280;65977;56.380;44.022;2023-03-01T03:18:44;99198.09;;;-2.84;53.64
77047;BME280;65977;56.380;44.022;2023-03-01T03:21:11;99201.59;;;-2.85;53.75
77047;BME280;65977;56.380;44.022;2023-03-01T03:23:37;99203.34;;;-2.86;53.58
77047;BME280;65977;56.380;44.022;2023-03-01T03:26:04;99213.53;;;-2.83;54.19
77047;BME280;65977;56.380;44.022;2023-03-01T03:28:34;99209.78;;;-2.77;53.73
77047;BME280;65977;56.380;44.022;2023-03-01T03:31:00;99208.84;;;-2.76;53.74
77047;BME280;65977;56.380;44.022;2023-03-01T03:33:30;99207.72;;;-2.71;53.93
77047;BME280;65977;56.380;44.022;2023-03-01T03:35:56;99214.38;;;-2.67;54.24
77047;BME280;65977;56.380;44.022;2023-03-01T03:38:22;99213.31;;;-2.63;54.04
77047;BME280;65977;56.380;44.022;2023-03-01T03:40:58;99203.72;;;-2.61;54.20
77047;BME280;65977;56.380;44.022;2023-03-01T03:43:28;99213.66;;;-2.53;54.24
77047;BME280;65977;56.380;44.022;2023-03-01T03:45:54;99216.81;;;-2.48;54.16
77047;BME280;65977;56.380;44.022;2023-03-01T03:48:23;99211.47;;;-2.45;53.90
77047;BME280;65977;56.380;44.022;2023-03-01T03:50:51;99213.13;;;-2.44;54.52
77047;BME280;65977;56.380;44.022;2023-03-01T03:53:18;99213.81;;;-2.40;54.24
77047;BME280;65977;56.380;44.022;2023-03-01T03:55:45;99214.38;;;-2.35;54.22
77047;BME280;65977;56.380;44.022;2023-03-01T03:58:11;99219.31;;;-2.31;54.07
77047;BME280;65977;56.380;44.022;2023-03-01T04:00:39;99207.06;;;-2.27;54.02
77047;BME280;65977;56.380;44.022;2023-03-01T04:03:06;99205.22;;;-2.25;53.83
77047;BME280;65977;56.380;44.022;2023-03-01T04:05:33;99209.38;;;-2.23;54.20
77047;BME280;65977;56.380;44.022;2023-03-01T04:07:59;99211.81;;;-2.20;53.78
77047;BME280;65977;56.380;44.022;2023-03-01T04:10:36;99210.69;;;-2.16;53.78
77047;BME280;65977;56.380;44.022;2023-03-01T04:13:03;99214.06;;;-2.14;53.44
77047;BME280;65977;56.380;44.022;2023-03-01T04:15:30;99216.47;;;-2.11;53.27
77047;BME280;65977;56.380;44.022;2023-03-01T04:17:58;99224.91;;;-2.07;53.25
77047;BME280;65977;56.380;44.022;2023-03-01T04:20:28;99218.22;;;-2.11;53.35
77047;BME280;65977;56.380;44.022;2023-03-01T04:22:58;99227.16;;;-2.01;53.07
77047;BME280;65977;56.380;44.022;2023-03-01T04:25:25;99232.91;;;-1.96;53.08
77047;BME280;65977;56.380;44.022;2023-03-01T04:27:50;99231.06;;;-1.94;52.96
77047;BME280;65977;56.380;44.022;2023-03-01T04:30:16;99231.53;;;-1.87;52.69
77047;BME280;65977;56.380;44.022;2023-03-01T04:32:42;99227.19;;;-1.87;52.69
77047;BME280;65977;56.380;44.022;2023-03-01T04:35:08;99231.94;;;-1.79;53.22
77047;BME280;65977;56.380;44.022;2023-03-01T04:37:34;99230.94;;;-1.77;52.47
77047;BME280;65977;56.380;44.022;2023-03-01T04:40:01;99237.69;;;-1.74;52.12
77047;BME280;65977;56.380;44.022;2023-03-01T04:42:33;99236.69;;;-1.72;52.46
77047;BME280;65977;56.380;44.022;2023-03-01T04:45:00;99227.50;;;-1.77;51.77
77047;BME280;65977;56.380;44.022;2023-03-01T04:47:28;99233.03;;;-1.68;51.66
77047;BME280;65977;56.380;44.022;2023-03-01T04:49:54;99242.28;;;-1.64;52.19
77047;BME280;65977;56.380;44.022;2023-03-01T04:52:19;99238.97;;;-1.52;52.09
77047;BME280;65977;56.380;44.022;2023-03-01T04:54:45;99241.22;;;-1.46;51.89
77047;BME280;65977;56.380;44.022;2023-03-01T04:57:11;99247.72;;;-1.39;51.66
77047;BME280;65977;56.380;44.022;2023-03-01T04:59:37;99251.53;;;-1.30;51.40
77047;BME280;65977;56.380;44.022;2023-03-01T05:02:02;99247.72;;;-1.24;51.38
77047;BME280;65977;56.380;44.022;2023-03-01T05:04:28;99252.56;;;-1.18;50.78
77047;BME280;65977;56.380;44.022;2023-03-01T05:06:56;99249.78;;;-1.15;50.90
77047;BME280;65977;56.380;44.022;2023-03-01T05:09:24;99255.72;;;-1.13;51.16
77047;BME280;65977;56.380;44.022;2023-03-01T05:11:49;99248.31;;;-1.05;50.57
77047;BME280;65977;56.380;44.022;2023-03-01T05:14:17;99254.75;;;-0.97;50.38
77047;BME280;65977;56.380;44.022;2023-03-01T05:16:42;99257.97;;;-0.93;50.23
77047;BME280;65977;56.380;44.022;2023-03-01T05:19:08;99241.38;;;-0.91;50.06
77047;BME280;65977;56.380;44.022;2023-03-01T05:21:43;99253.44;;;-0.76;50.21
77047;BME280;65977;56.380;44.022;2023-03-01T05:24:28;99253.91;;;-0.69;49.21
77047;BME280;65977;56.380;44.022;2023-03-01T05:26:54;99249.91;;;-0.60;49.05
77047;BME280;65977;56.380;44.022;2023-03-01T05:29:21;99251.31;;;-0.41;49.28
77047;BME280;65977;56.380;44.022;2023-03-01T05:31:55;99255.13;;;-0.20;48.57
77047;BME280;65977;56.380;44.022;2023-03-01T05:34:28;99252.16;;;0.13;47.40
77047;BME280;65977;56.380;44.022;2023-03-01T05:36:58;99248.56;;;0.55;46.46
77047;BME280;65977;56.380;44.022;2023-03-01T05:39:25;99248.44;;;1.08;46.22
77047;BME280;65977;56.380;44.022;2023-03-01T05:41:52;99255.28;;;1.60;44.69
77047;BME280;65977;56.380;44.022;2023-03-01T05:44:19;99253.09;;;1.90;44.84
77047;BME280;65977;56.380;44.022;2023-03-01T05:46:45;99259.41;;;1.99;43.54
77047;BME280;65977;56.380;44.022;2023-03-01T05:49:12;99254.78;;;2.15;43.98
77047;BME280;65977;56.380;44.022;2023-03-01T05:51:39;99262.75;;;2.24;43.26
77047;BME280;65977;56.380;44.022;2023-03-01T05:54:05;99260.56;;;2.31;43.18
77047;BME280;65977;56.380;44.022;2023-03-01T05:56:34;99265.81;;;2.42;43.27
77047;BME280;65977;56.380;44.022;2023-03-01T05:59:01;99269.41;;;2.52;43.10
77047;BME280;65977;56.380;44.022;2023-03-01T06:01:27;99269.38;;;2.41;42.81
77047;BME280;65977;56.380;44.022;2023-03-01T06:03:53;99272.75;;;2.30;43.73
77047;BME280;65977;56.380;44.022;2023-03-01T06:06:18;99270.78;;;2.21;43.26
77047;BME280;65977;56.380;44.022;2023-03-01T06:08:44;99270.09;;;2.19;43.53
77047;BME280;65977;56.380;44.022;2023-03-01T06:11:10;99264.28;;;2.16;42.88
77047;BME280;65977;56.380;44.022;2023-03-01T06:13:36;99280.22;;;2.11;42.67
77047;BME280;65977;56.380;44.022;2023-03-01T06:16:06;99267.84;;;2.02;43.41
77047;BME280;65977;56.380;44.022;2023-03-01T06:18:32;99265.16;;;1.91;43.32
77047;BME280;65977;56.380;44.022;2023-03-01T06:20:58;99278.94;;;1.93;43.43
77047;BME280;65977;56.380;44.022;2023-03-01T06:23:24;99278.19;;;1.91;43.77
77047;BME280;65977;56.380;44.022;2023-03-01T06:25:49;99282.06;;;1.98;43.42
77047;BME280;65977;56.380;44.022;2023-03-01T06:28:15;99277.78;;;1.97;43.38
77047;BME280;65977;56.380;44.022;2023-03-01T06:30:41;99280.75;;;2.04;42.82
77047;BME280;65977;56.380;44.022;2023-03-01T06:33:07;99278.78;;;2.07;42.97
77047;BME280;65977;56.380;44.022;2023-03-01T06:35:32;99273.03;;;2.15;42.45
77047;BME280;65977;56.380;44.022;2023-03-01T06:38:00;99266.63;;;2.31;42.92
77047;BME280;65977;56.380;44.022;2023-03-01T06:40:26;99273.63;;;2.42;41.72
77047;BME280;65977;56.380;44.022;2023-03-01T06:42:52;99259.88;;;2.64;42.14
77047;BME280;65977;56.380;44.022;2023-03-01T06:45:19;99266.56;;;2.79;41.25
77047;BME280;65977;56.380;44.022;2023-03-01T06:47:45;99271.97;;;2.99;41.42
77047;BME280;65977;56.380;44.022;2023-03-01T06:50:12;99262.34;;;3.11;40.67
77047;BME280;65977;56.380;44.022;2023-03-01T06:52:38;99270.94;;;3.24;39.41
77047;BME280;65977;56.380;44.022;2023-03-01T06:55:04;99265.25;;;3.30;39.87
77047;BME280;65977;56.380;44.022;2023-03-01T06:57:30;99264.41;;;3.30;39.73
77047;BME280;65977;56.380;44.022;2023-03-01T06:59:56;99264.03;;;3.23;39.22
77047;BME280;65977;56.380;44.022;2023-03-01T07:02:22;99265.47;;;3.27;39.64
77047;BME280;65977;56.380;44.022;2023-03-01T07:04:51;99264.88;;;3.35;39.13
77047;BME280;65977;56.380;44.022;2023-03-01T07:07:18;99272.00;;;3.44;38.29
77047;BME280;65977;56.380;44.022;2023-03-01T07:09:45;99263.09;;;3.46;38.80
77047;BME280;65977;56.380;44.022;2023-03-01T07:12:11;99261.44;;;3.56;38.69
77047;BME280;65977;56.380;44.022;2023-03-01T07:14:37;99270.34;;;3.87;38.40
77047;BME280;65977;56.380;44.022;2023-03-01T07:17:02;99267.81;;;4.19;37.07
77047;BME280;65977;56.380;44.022;2023-03-01T07:19:28;99251.84;;;4.65;36.55
77047;BME280;65977;56.380;44.022;2023-03-01T07:21:54;99259.69;;;5.06;36.25
77047;BME280;65977;56.380;44.022;2023-03-01T07:24:21;99267.84;;;5.33;35.53
77047;BME280;65977;56.380;44.022;2023-03-01T07:26:51;99256.47;;;5.74;35.61
77047;BME280;65977;56.380;44.022;2023-03-01T07:29:18;99264.22;;;6.34;34.80
77047;BME280;65977;56.380;44.022;2023-03-01T07:31:43;99263.69;;;6.98;33.33
77047;BME280;65977;56.380;44.022;2023-03-01T07:34:10;99261.75;;;7.56;32.36
77047;BME280;65977;56.380;44.022;2023-03-01T07:36:36;99251.94;;;8.12;31.55
77047;BME280;65977;56.380;44.022;2023-03-01T07:39:03;99265.97;;;8.31;30.90
77047;BME280;65977;56.380;44.022;2023-03-01T07:41:29;99247.28;;;8.24;30.94
77047;BME280;65977;56.380;44.022;2023-03-01T07:43:55;99246.72;;;8.83;29.80
77047;BME280;65977;56.380;44.022;2023-03-01T07:46:21;99240.38;;;9.37;29.20
77047;BME280;65977;56.380;44.022;2023-03-01T07:48:47;99245.41;;;9.56;29.20
77047;BME280;65977;56.380;44.022;2023-03-01T07:51:13;99245.19;;;10.17;27.93
77047;BME280;65977;56.380;44.022;2023-03-01T07:53:39;99240.88;;;10.90;27.92
77047;BME280;65977;56.380;44.022;2023-03-01T07:56:09;99238.84;;;11.40;26.82
77047;BME280;65977;56.380;44.022;2023-03-01T07:58:36;99244.78;;;11.42;26.88
77047;BME280;65977;56.380;44.022;2023-03-01T08:01:04;99256.13;;;11.75;26.42
77047;BME280;65977;56.380;44.022;2023-03-01T08:03:30;99250.75;;;11.20;25.76
77047;BME280;65977;56.380;44.022;2023-03-01T08:05:59;99256.22;;;10.62;27.29
77047;BME280;65977;56.380;44.022;2023-03-01T08:08:25;99250.50;;;9.83;28.13
77047;BME280;65977;56.380;44.022;2023-03-01T08:10:51;99263.91;;;9.13;28.60
77047;BME280;65977;56.380;44.022;2023-03-01T08:13:16;99268.72;;;8.56;29.34
77047;BME280;65977;56.380;44.022;2023-03-01T08:15:48;99275.03;;;7.91;29.88
77047;BME280;65977;56.380;44.022;2023-03-01T08:18:13;99269.00;;;7.35;30.25
77047;BME280;65977;56.380;44.022;2023-03-01T08:20:40;99275.41;;;7.13;31.12
77047;BME280;65977;56.380;44.022;2023-03-01T08:23:05;99273.91;;;6.82;30.83
77047;BME280;65977;56.380;44.022;2023-03-01T08:25:31;99282.47;;;6.74;31.02
77047;BME280;65977;56.380;44.022;2023-03-01T08:27:57;99283.59;;;6.53;31.27
77047;BME280;65977;56.380;44.022;2023-03-01T08:30:23;99293.25;;;6.33;31.13
77047;BME280;65977;56.380;44.022;2023-03-01T08:32:49;99290.97;;;6.09;31.36
77047;BME280;65977;56.380;44.022;2023-03-01T08:35:16;99294.75;;;5.86;31.88
77047;BME280;65977;56.380;44.022;2023-03-01T08:37:42;99300.41;;;5.61;32.05
77047;BME280;65977;56.380;44.022;2023-03-01T08:40:08;99302.69;;;5.54;32.08
77047;BME280;65977;56.380;44.022;2023-03-01T08:42:36;99304.13;;;5.89;31.80
77047;BME280;65977;56.380;44.022;2023-03-01T08:45:02;99304.06;;;6.00;32.12
77047;BME280;65977;56.380;44.022;2023-03-01T08:47:29;99305.44;;;6.13;32.10
77047;BME280;65977;56.380;44.022;2023-03-01T08:49:54;99303.84;;;6.22;32.02
77047;BME280;65977;56.380;44.022;2023-03-01T08:52:20;99301.53;;;6.38;31.67
77047;BME280;65977;56.380;44.022;2023-03-01T08:54:49;99306.22;;;6.54;31.43
77047;BME280;65977;56.380;44.022;2023-03-01T08:57:15;99308.88;;;6.63;31.46
77047;BME280;65977;56.380;44.022;2023-03-01T08:59:41;99317.78;;;6.22;32.17
77047;BME280;65977;56.380;44.022;2023-03-01T09:02:12;99314.00;;;6.06;32.62
77047;BME280;65977;56.380;44.022;2023-03-01T09:04:39;99312.44;;;5.94;32.93
77047;BME280;65977;56.380;44.022;2023-03-01T09:07:05;99305.22;;;5.86;33.06
77047;BME280;65977;56.380;44.022;2023-03-01T09:09:31;99309.97;;;5.71;32.99
77047;BME280;65977;56.380;44.022;2023-03-01T09:11:57;99320.56;;;5.91;32.83
77047;BME280;65977;56.380;44.022;2023-03-01T09:14:22;99313.72;;;5.79;32.84
77047;BME280;65977;56.380;44.022;2023-03-01T09:16:48;99313.28;;;5.73;33.25
77047;BME280;65977;56.380;44.022;2023-03-01T09:19:14;99316.56;;;5.66;33.57
77047;BME280;65977;56.380;44.022;2023-03-01T09:21:40;99319.47;;;5.72;33.29
77047;BME280;65977;56.380;44.022;2023-03-01T09:24:12;99315.25;;;5.81;33.52
77047;BME280;65977;56.380;44.022;2023-03-01T09:26:38;99315.75;;;5.96;33.49
77047;BME280;65977;56.380;44.022;2023-03-01T09:29:04;99316.59;;;5.96;33.19
77047;BME280;65977;56.380;44.022;2023-03-01T09:31:30;99306.28;;;6.04;33.57
77047;BME280;65977;56.380;44.022;2023-03-01T09:33:55;99302.59;;;6.26;33.12
77047;BME280;65977;56.380;44.022;2023-03-01T09:36:24;99309.84;;;6.53;32.76
77047;BME280;65977;56.380;44.022;2023-03-01T09:38:51;99302.53;;;6.75;32.54
77047;BME280;65977;56.380;44.022;2023-03-01T09:47:02;99301.41;;;7.07;32.52
77047;BME280;65977;56.380;44.022;2023-03-01T09:49:31;99294.75;;;7.12;32.23
77047;BME280;65977;56.380;44.022;2023-03-01T09:54:55;99301.25;;;7.18;31.74
77047;BME280;65977;56.380;44.022;2023-03-01T10:00:11;99304.72;;;6.70;32.49
77047;BME280;65977;56.380;44.022;2023-03-01T10:02:51;99297.81;;;6.41;32.69
77047;BME280;65977;56.380;44.022;2023-03-01T10:05:31;99307.47;;;6.00;33.25
77047;BME280;65977;56.380;44.022;2023-03-01T10:10:36;99298.94;;;5.47;33.96
77047;BME280;65977;56.380;44.022;2023-03-01T10:18:37;99309.94;;;5.00;34.11
77047;BME280;65977;56.380;44.022;2023-03-01T10:21:17;99295.44;;;4.96;34.23
77047;BME280;65977;56.380;44.022;2023-03-01T10:23:43;99313.81;;;4.85;34.51
77047;BME280;65977;56.380;44.022;2023-03-01T10:29:04;99329.97;;;4.58;34.51
77047;BME280;65977;56.380;44.022;2023-03-01T10:31:39;99319.75;;;4.55;34.56
77047;BME280;65977;56.380;44.022;2023-03-01T10:34:15;99318.47;;;4.50;34.53
77047;BME280;65977;56.380;44.022;2023-03-01T10:36:42;99322.88;;;4.49;34.56
77047;BME280;65977;56.380;44.022;2023-03-01T10:39:15;99316.63;;;4.29;34.90
77047;BME280;65977;56.380;44.022;2023-03-01T10:42:00;99332.31;;;4.18;35.34
77047;BME280;65977;56.380;44.022;2023-03-01T10:44:47;99322.34;;;4.12;35.57
77047;BME280;65977;56.380;44.022;2023-03-01T10:47:24;99325.44;;;4.06;36.10
77047;BME280;65977;56.380;44.022;2023-03-01T10:50:37;99329.97;;;4.04;35.61
77047;BME280;65977;56.380;44.022;2023-03-01T10:52:56;99320.22;;;3.95;35.33
77047;BME280;65977;56.380;44.022;2023-03-01T10:55:35;99328.19;;;3.94;35.07
77047;BME280;65977;56.380;44.022;2023-03-01T10:58:19;99322.94;;;4.16;35.33
77047;BME280;65977;56.380;44.022;2023-03-01T11:00:58;99328.41;;;4.24;35.08
77047;BME280;65977;56.380;44.022;2023-03-01T11:03:30;99328.84;;;4.29;35.37
77047;BME280;65977;56.380;44.022;2023-03-01T11:06:41;99324.94;;;4.23;35.66
77047;BME280;65977;56.380;44.022;2023-03-01T11:08:46;99320.69;;;4.11;35.51
77047;BME280;65977;56.380;44.022;2023-03-01T11:16:33;99326.66;;;4.88;34.26
77047;BME280;65977;56.380;44.022;2023-03-01T11:19:04;99317.91;;;4.78;33.80
77047;BME280;65977;56.380;44.022;2023-03-01T11:21:32;99318.41;;;4.61;34.18
77047;BME280;65977;56.380;44.022;2023-03-01T11:24:00;99325.88;;;4.22;34.44
77047;BME280;65977;56.380;44.022;2023-03-01T11:26:28;99337.44;;;3.98;34.79
77047;BME280;65977;56.380;44.022;2023-03-01T11:28:58;99324.50;;;3.74;34.81
77047;BME280;65977;56.380;44.022;2023-03-01T11:31:28;99327.94;;;3.63;35.35
77047;BME280;65977;56.380;44.022;2023-03-01T11:33:59;99330.66;;;3.51;35.06
77047;BME280;65977;56.380;44.022;2023-03-01T11:36:52;99302.13;;;3.26;35.08
77047;BME280;65977;56.380;44.022;2023-03-01T11:39:38;99320.88;;;3.31;35.49
77047;BME280;65977;56.380;44.022;2023-03-01T11:42:15;99320.28;;;3.27;35.72
77047;BME280;65977;56.380;44.022;2023-03-01T11:44:46;99322.31;;;3.35;35.46
77047;BME280;65977;56.380;44.022;2023-03-01T11:47:29;99314.59;;;3.33;35.41
77047;BME280;65977;56.380;44.022;2023-03-01T11:50:08;99320.78;;;3.43;35.42
77047;BME280;65977;56.380;44.022;2023-03-01T12:04:36;99316.06;;;3.59;35.65
77047;BME280;65977;56.380;44.022;2023-03-01T12:11:01;99326.75;;;3.45;35.70
77047;BME280;65977;56.380;44.022;2023-03-01T12:21:05;99333.38;;;3.03;36.59
77047;BME280;65977;56.380;44.022;2023-03-01T12:29:07;99332.88;;;2.64;37.12
77047;BME280;65977;56.380;44.022;2023-03-01T12:31:50;99341.13;;;2.58;37.13
77047;BME280;65977;56.380;44.022;2023-03-01T12:51:02;99345.19;;;1.89;37.95
77047;BME280;65977;56.380;44.022;2023-03-01T12:53:32;99329.56;;;1.89;37.45
77047;BME280;65977;56.380;44.022;2023-03-01T12:56:02;99341.88;;;1.87;37.71
77047;BME280;65977;56.380;44.022;2023-03-01T13:07:01;99345.34;;;1.37;39.03
77047;BME280;65977;56.380;44.022;2023-03-01T13:12:43;99348.16;;;1.47;38.93
77047;BME280;65977;56.380;44.022;2023-03-01T13:17:54;99343.16;;;1.44;39.17
77047;BME280;65977;56.380;44.022;2023-03-01T13:20:23;99339.09;;;1.40;39.16
77047;BME280;65977;56.380;44.022;2023-03-01T13:23:08;99349.91;;;1.34;38.53
77047;BME280;65977;56.380;44.022;2023-03-01T13:28:47;99356.16;;;1.31;38.83
77047;BME280;65977;56.380;44.022;2023-03-01T13:33:46;99354.03;;;1.11;38.81
77047;BME280;65977;56.380;44.022;2023-03-01T13:39:26;99363.03;;;0.93;39.79
77047;BME280;65977;56.380;44.022;2023-03-01T13:41:54;99360.03;;;0.86;39.63
77047;BME280;65977;56.380;44.022;2023-03-01T13:46:46;99359.66;;;0.66;39.78
77047;BME280;65977;56.380;44.022;2023-03-01T13:49:16;99355.44;;;0.50;39.84
77047;BME280;65977;56.380;44.022;2023-03-01T13:51:46;99359.91;;;0.34;40.75
77047;BME280;65977;56.380;44.022;2023-03-01T13:54:14;99363.38;;;0.21;41.01
77047;BME280;65977;56.380;44.022;2023-03-01T13:56:41;99356.16;;;0.12;40.97
77047;BME280;65977;56.380;44.022;2023-03-01T13:59:17;99359.34;;;0.03;42.01
77047;BME280;65977;56.380;44.022;2023-03-01T14:01:43;99360.56;;;-0.03;41.55
77047;BME280;65977;56.380;44.022;2023-03-01T14:04:29;99361.66;;;-0.07;41.31
77047;BME280;65977;56.380;44.022;2023-03-01T14:07:28;99357.94;;;-0.17;42.45
77047;BME280;65977;56.380;44.022;2023-03-01T14:10:03;99356.56;;;-0.23;42.36
77047;BME280;65977;56.380;44.022;2023-03-01T14:15:05;99359.06;;;-0.35;42.44
77047;BME280;65977;56.380;44.022;2023-03-01T14:20:07;99352.56;;;-0.42;42.91
77047;BME280;65977;56.380;44.022;2023-03-01T14:22:36;99346.09;;;-0.49;42.70
77047;BME280;65977;56.380;44.022;2023-03-01T14:25:17;99348.13;;;-0.54;43.38
77047;BME280;65977;56.380;44.022;2023-03-01T14:27:44;99349.13;;;-0.57;42.87
77047;BME280;65977;56.380;44.022;2023-03-01T14:30:14;99351.91;;;-0.60;42.68
77047;BME280;65977;56.380;44.022;2023-03-01T14:32:41;99333.66;;;-0.73;43.46
77047;BME280;65977;56.380;44.022;2023-03-01T14:35:23;99358.66;;;-0.72;43.72
77047;BME280;65977;56.380;44.022;2023-03-01T14:37:49;99360.78;;;-0.78;43.52
77047;BME280;65977;56.380;44.022;2023-03-01T14:42:58;99366.84;;;-0.93;43.48
77047;BME280;65977;56.380;44.022;2023-03-01T14:45:26;99355.91;;;-0.98;44.00
77047;BME280;65977;56.380;44.022;2023-03-01T14:47:53;99370.25;;;-1.07;44.08
77047;BME280;65977;56.380;44.022;2023-03-01T14:50:29;99360.91;;;-1.09;43.74
77047;BME280;65977;56.380;44.022;2023-03-01T14:53:01;99338.53;;;-1.42;44.18
77047;BME280;65977;56.380;44.022;2023-03-01T14:55:37;99367.59;;;-1.21;44.12
77047;BME280;65977;56.380;44.022;2023-03-01T14:58:11;99384.47;;;-1.30;44.36
77047;BME280;65977;56.380;44.022;2023-03-01T15:00:37;99381.50;;;-1.38;44.36